Juneau, AK

9:44 AM AKST on February 24, 2017 (GMT -0900)
Juneau International | | Change Station

Elev 16 ft 58.35 °N, 134.58 °W | Updated 51 minutes ago

Mostly Cloudy
Mostly Cloudy
24 °F
Feels Like 24 °F
N
0
Wind Variable Wind from North

Today
High -- | Low -- °F
--% Chance of Precip.
Yesterday
High -- | Low -- °F
Precip. -- in
Pressure 30.42 in
Visibility 10.0 miles
Clouds Few 1200 ft
Few 3500 ft
Mostly Cloudy 20000 ft
Dew Point 22 °F
Humidity 91%
Rainfall 0.00 in
Snow Depth Not available.
7:05 AM 5:18 PM
Waning Crescent, 4% visible
METAR PAJN 241753Z 00000KT 10SM FEW012 FEW035 BKN200 M04/M06 A3042 RMK AO2 SLP301 I6000 T10441056 11044 21078 53001
Pressure 30.42 in
Visibility 10.0 miles
Clouds Few 1200 ft
Few 3500 ft
Mostly Cloudy 20000 ft
Dew Point 22 °F
Humidity 91%
Rainfall 0.00 in
Snow Depth Not available.
7:05 AM 5:18 PM
Waning Crescent, 4% visible
METAR PAJN 241753Z 00000KT 10SM FEW012 FEW035 BKN200 M04/M06 A3042 RMK AO2 SLP301 I6000 T10441056 11044 21078 53001

Get Your Daily Forecast Email!

Thanks for signing up!

Be on the lookout for a verification email in your inbox.

You'll start receiving the daily forecast at 8 AM.

×

10-Day Weather Forecast

Almanac

Astronomy

Feb. 24, 2017 Rise Set
Actual Time
Civil Twilight
Nautical Twilight
Astronomical Twilight
Moon
Length of Visible Light
Length of Day
Tomorrow will be .
, % of the Moon is Illuminated

Today's Extremes

State Highs State Lows

Community

WunderPhotos

Upload Photos

1,962,540 photos uploaded!

WunderBlog® & News

Nearby

Air Quality

  Air Quality AQ Index Pollutant
Not available.

Snow Depth

Station Depth Elevation

Earthquake Activity

City Distance Mag. Time & Date
Minimum magnitude displayed is 2.5.

Coastal Water Temperatures

Place Temperature

Stations

Nearby Weather Stations

Station Location Temp. Windchill Dew Point Humidity Wind Precip. Elev Updated Type
                   

Watches & Warnings

There are currently no watches in effect.